sensor_id;sensor_type;location;lat;lon;timestamp;pressure;altitude;pressure_sealevel;temperature;humidity
41467;BME280;27205;53.690;19.948;2022-07-26T00:01:23;99262.91;;;19.12;52.02
41467;BME280;27205;53.690;19.948;2022-07-26T00:06:33;99259.77;;;19.17;52.44
41467;BME280;27205;53.690;19.948;2022-07-26T00:11:37;99254.30;;;19.23;52.79
41467;BME280;27205;53.690;19.948;2022-07-26T00:16:40;99252.87;;;19.30;53.13
41467;BME280;27205;53.690;19.948;2022-07-26T00:21:43;99238.66;;;19.39;53.19
41467;BME280;27205;53.690;19.948;2022-07-26T00:26:47;99238.27;;;19.43;53.66
41467;BME280;27205;53.690;19.948;2022-07-26T00:31:50;99228.77;;;19.53;54.02
41467;BME280;27205;53.690;19.948;2022-07-26T00:36:54;99211.59;;;19.57;54.35
41467;BME280;27205;53.690;19.948;2022-07-26T00:41:57;99209.00;;;19.59;54.36
41467;BME280;27205;53.690;19.948;2022-07-26T00:47:00;99211.42;;;19.59;54.75
41467;BME280;27205;53.690;19.948;2022-07-26T00:52:08;99213.11;;;19.55;55.08
41467;BME280;27205;53.690;19.948;2022-07-26T00:57:13;99208.48;;;19.51;55.38
41467;BME280;27205;53.690;19.948;2022-07-26T01:02:17;99212.49;;;19.48;55.44
41467;BME280;27205;53.690;19.948;2022-07-26T01:07:21;99213.58;;;19.43;55.47
41467;BME280;27205;53.690;19.948;2022-07-26T01:12:25;99216.81;;;19.38;55.92
41467;BME280;27205;53.690;19.948;2022-07-26T01:17:28;99215.49;;;19.35;56.09
41467;BME280;27205;53.690;19.948;2022-07-26T01:22:31;99210.06;;;19.32;56.30
41467;BME280;27205;53.690;19.948;2022-07-26T01:27:35;99207.98;;;19.32;56.45
41467;BME280;27205;53.690;19.948;2022-07-26T01:32:41;99213.30;;;19.32;56.70
41467;BME280;27205;53.690;19.948;2022-07-26T01:37:45;99209.85;;;19.33;56.83
41467;BME280;27205;53.690;19.948;2022-07-26T01:42:48;99205.42;;;19.33;56.99
41467;BME280;27205;53.690;19.948;2022-07-26T01:47:52;99192.77;;;19.38;57.32
41467;BME280;27205;53.690;19.948;2022-07-26T01:52:55;99181.58;;;19.46;57.55
41467;BME280;27205;53.690;19.948;2022-07-26T01:57:59;99181.20;;;19.52;57.56
41467;BME280;27205;53.690;19.948;2022-07-26T02:03:02;99180.54;;;19.52;57.86
41467;BME280;27205;53.690;19.948;2022-07-26T02:08:06;99178.42;;;19.52;57.93
41467;BME280;27205;53.690;19.948;2022-07-26T02:13:14;99170.94;;;19.53;58.15
41467;BME280;27205;53.690;19.948;2022-07-26T02:18:17;99166.39;;;19.53;58.16
41467;BME280;27205;53.690;19.948;2022-07-26T02:23:22;99173.70;;;19.49;58.46
41467;BME280;27205;53.690;19.948;2022-07-26T02:28:26;99177.46;;;19.51;58.56
41467;BME280;27205;53.690;19.948;2022-07-26T02:33:30;99177.09;;;19.54;58.68
41467;BME280;27205;53.690;19.948;2022-07-26T02:38:33;99176.15;;;19.60;58.89
41467;BME280;27205;53.690;19.948;2022-07-26T02:43:37;99173.74;;;19.68;58.88
41467;BME280;27205;53.690;19.948;2022-07-26T02:48:40;99167.06;;;19.72;59.07
41467;BME280;27205;53.690;19.948;2022-07-26T02:53:46;99158.81;;;19.73;59.17
41467;BME280;27205;53.690;19.948;2022-07-26T02:58:50;99151.43;;;19.75;59.27
41467;BME280;27205;53.690;19.948;2022-07-26T03:03:54;99154.88;;;19.77;59.26
41467;BME280;27205;53.690;19.948;2022-07-26T03:08:58;99175.04;;;19.78;59.25
41467;BME280;27205;53.690;19.948;2022-07-26T03:14:01;99184.83;;;19.78;59.35
41467;BME280;27205;53.690;19.948;2022-07-26T03:19:05;99169.17;;;19.81;59.73
41467;BME280;27205;53.690;19.948;2022-07-26T03:24:08;99165.08;;;19.83;59.60
41467;BME280;27205;53.690;19.948;2022-07-26T03:29:12;99152.56;;;19.87;59.60
41467;BME280;27205;53.690;19.948;2022-07-26T03:34:16;99148.10;;;19.88;59.64
41467;BME280;27205;53.690;19.948;2022-07-26T03:39:19;99155.13;;;19.91;59.80
41467;BME280;27205;53.690;19.948;2022-07-26T03:44:24;99151.08;;;19.94;59.97
41467;BME280;27205;53.690;19.948;2022-07-26T03:49:27;99154.92;;;19.98;60.13
41467;BME280;27205;53.690;19.948;2022-07-26T03:54:31;99149.20;;;20.02;60.23
41467;BME280;27205;53.690;19.948;2022-07-26T03:59:34;99151.94;;;20.03;60.31
41467;BME280;27205;53.690;19.948;2022-07-26T04:04:38;99155.59;;;20.06;60.31
41467;BME280;27205;53.690;19.948;2022-07-26T04:09:41;99144.16;;;20.18;60.36
41467;BME280;27205;53.690;19.948;2022-07-26T04:14:45;99138.18;;;20.41;60.09
41467;BME280;27205;53.690;19.948;2022-07-26T04:19:48;99130.17;;;20.69;60.02
41467;BME280;27205;53.690;19.948;2022-07-26T04:24:51;99138.73;;;20.98;59.98
41467;BME280;27205;53.690;19.948;2022-07-26T04:29:55;99138.59;;;21.32;59.85
41467;BME280;27205;53.690;19.948;2022-07-26T04:34:58;99156.89;;;21.69;59.63
41467;BME280;27205;53.690;19.948;2022-07-26T04:40:02;99181.88;;;21.93;59.21
41467;BME280;27205;53.690;19.948;2022-07-26T04:45:06;99200.23;;;21.93;59.04
41467;BME280;27205;53.690;19.948;2022-07-26T04:50:11;99201.48;;;21.98;58.87
41467;BME280;27205;53.690;19.948;2022-07-26T04:55:17;99199.67;;;22.17;58.68
41467;BME280;27205;53.690;19.948;2022-07-26T05:00:22;99201.01;;;22.41;58.49
41467;BME280;27205;53.690;19.948;2022-07-26T05:05:30;99203.83;;;22.74;58.23
41467;BME280;27205;53.690;19.948;2022-07-26T05:10:35;99215.05;;;23.11;58.02
41467;BME280;27205;53.690;19.948;2022-07-26T05:15:39;99198.17;;;23.34;57.58
41467;BME280;27205;53.690;19.948;2022-07-26T05:20:46;99193.98;;;23.70;57.24
41467;BME280;27205;53.690;19.948;2022-07-26T05:25:49;99205.52;;;24.01;56.80
41467;BME280;27205;53.690;19.948;2022-07-26T05:30:53;99202.20;;;24.19;56.63
41467;BME280;27205;53.690;19.948;2022-07-26T05:35:56;99193.98;;;24.50;56.02
41467;BME280;27205;53.690;19.948;2022-07-26T05:41:00;99199.54;;;24.78;55.31
41467;BME280;27205;53.690;19.948;2022-07-26T05:46:03;99207.27;;;25.08;54.72
41467;BME280;27205;53.690;19.948;2022-07-26T05:51:11;99219.64;;;25.38;54.32
41467;BME280;27205;53.690;19.948;2022-07-26T05:56:14;99222.84;;;25.61;53.66
41467;BME280;27205;53.690;19.948;2022-07-26T06:01:18;99219.56;;;25.77;52.91
41467;BME280;27205;53.690;19.948;2022-07-26T06:06:21;99213.60;;;25.97;52.52
41467;BME280;27205;53.690;19.948;2022-07-26T06:11:25;99233.76;;;26.21;51.77
41467;BME280;27205;53.690;19.948;2022-07-26T06:16:28;99254.61;;;26.43;51.37
41467;BME280;27205;53.690;19.948;2022-07-26T06:21:31;99264.15;;;26.44;50.47
41467;BME280;27205;53.690;19.948;2022-07-26T06:26:35;99256.27;;;26.25;49.78
41467;BME280;27205;53.690;19.948;2022-07-26T06:31:39;99265.23;;;25.96;49.91
41467;BME280;27205;53.690;19.948;2022-07-26T06:36:42;99281.70;;;25.60;49.19
41467;BME280;27205;53.690;19.948;2022-07-26T06:41:46;99288.55;;;25.11;48.73
41467;BME280;27205;53.690;19.948;2022-07-26T06:46:50;99288.42;;;24.92;49.26
41467;BME280;27205;53.690;19.948;2022-07-26T06:51:53;99288.77;;;25.00;49.50
41467;BME280;27205;53.690;19.948;2022-07-26T06:56:59;99293.33;;;25.08;49.59
41467;BME280;27205;53.690;19.948;2022-07-26T07:02:04;99311.64;;;24.87;49.63
41467;BME280;27205;53.690;19.948;2022-07-26T07:07:07;99318.65;;;24.46;50.09
41467;BME280;27205;53.690;19.948;2022-07-26T07:12:11;99296.20;;;24.21;50.37
41467;BME280;27205;53.690;19.948;2022-07-26T07:17:18;99290.14;;;24.24;50.81
41467;BME280;27205;53.690;19.948;2022-07-26T07:22:22;99285.83;;;24.40;50.68
41467;BME280;27205;53.690;19.948;2022-07-26T07:27:26;99282.36;;;24.53;50.82
41467;BME280;27205;53.690;19.948;2022-07-26T07:32:31;99272.59;;;24.42;50.96
41467;BME280;27205;53.690;19.948;2022-07-26T07:37:37;99262.02;;;24.20;51.17
41467;BME280;27205;53.690;19.948;2022-07-26T07:42:57;99276.29;;;24.27;51.45
41467;BME280;27205;53.690;19.948;2022-07-26T07:48:00;99292.02;;;24.22;51.39
41467;BME280;27205;53.690;19.948;2022-07-26T07:53:03;99282.58;;;24.01;52.06
41467;BME280;27205;53.690;19.948;2022-07-26T07:58:07;99284.82;;;23.93;52.48
41467;BME280;27205;53.690;19.948;2022-07-26T08:03:11;99288.27;;;23.69;53.75
41467;BME280;27205;53.690;19.948;2022-07-26T08:08:19;99274.80;;;23.28;55.18
41467;BME280;27205;53.690;19.948;2022-07-26T08:13:24;99259.38;;;22.88;56.59
41467;BME280;27205;53.690;19.948;2022-07-26T08:18:28;99263.95;;;22.73;57.08
41467;BME280;27205;53.690;19.948;2022-07-26T08:23:32;99268.65;;;22.60;57.45
41467;BME280;27205;53.690;19.948;2022-07-26T08:28:35;99261.56;;;22.48;57.82
41467;BME280;27205;53.690;19.948;2022-07-26T08:33:49;99262.34;;;22.41;58.26
41467;BME280;27205;53.690;19.948;2022-07-26T08:38:53;99275.84;;;22.48;58.92
41467;BME280;27205;53.690;19.948;2022-07-26T08:44:06;99278.90;;;22.43;59.60
41467;BME280;27205;53.690;19.948;2022-07-26T08:49:11;99285.25;;;22.32;60.06
41467;BME280;27205;53.690;19.948;2022-07-26T08:54:21;99287.03;;;22.14;60.37
41467;BME280;27205;53.690;19.948;2022-07-26T08:59:25;99295.06;;;22.18;60.76
41467;BME280;27205;53.690;19.948;2022-07-26T09:04:30;99309.81;;;22.60;60.96
41467;BME280;27205;53.690;19.948;2022-07-26T09:15:00;99325.42;;;23.84;61.24
41467;BME280;27205;53.690;19.948;2022-07-26T09:20:12;99333.05;;;24.48;61.10
41467;BME280;27205;53.690;19.948;2022-07-26T09:25:21;99351.63;;;24.56;60.74
41467;BME280;27205;53.690;19.948;2022-07-26T09:30:26;99366.73;;;24.40;60.95
41467;BME280;27205;53.690;19.948;2022-07-26T09:35:33;99372.16;;;24.11;61.90
41467;BME280;27205;53.690;19.948;2022-07-26T09:40:54;99369.46;;;23.89;62.39
41467;BME280;27205;53.690;19.948;2022-07-26T09:46:04;99379.48;;;23.99;62.74
41467;BME280;27205;53.690;19.948;2022-07-26T09:51:09;99389.65;;;23.87;63.11
41467;BME280;27205;53.690;19.948;2022-07-26T09:56:13;99400.05;;;23.47;63.93
41467;BME280;27205;53.690;19.948;2022-07-26T10:01:16;99403.77;;;22.88;64.76
41467;BME280;27205;53.690;19.948;2022-07-26T10:06:21;99403.11;;;22.51;66.23
41467;BME280;27205;53.690;19.948;2022-07-26T10:11:40;99401.20;;;22.17;67.27
41467;BME280;27205;53.690;19.948;2022-07-26T10:16:44;99404.13;;;22.03;67.70
41467;BME280;27205;53.690;19.948;2022-07-26T10:21:49;99413.59;;;22.08;68.63
41467;BME280;27205;53.690;19.948;2022-07-26T10:26:52;99417.17;;;22.22;69.45
41467;BME280;27205;53.690;19.948;2022-07-26T10:37:05;99431.94;;;21.90;71.12
41467;BME280;27205;53.690;19.948;2022-07-26T10:42:09;99431.83;;;21.60;71.90
41467;BME280;27205;53.690;19.948;2022-07-26T10:47:15;99442.99;;;21.15;73.35
41467;BME280;27205;53.690;19.948;2022-07-26T10:52:26;99450.64;;;20.79;73.90
41467;BME280;27205;53.690;19.948;2022-07-26T10:57:41;99451.98;;;20.66;74.51
41467;BME280;27205;53.690;19.948;2022-07-26T11:02:52;99451.75;;;20.73;74.97
41467;BME280;27205;53.690;19.948;2022-07-26T11:07:59;99447.48;;;20.79;75.27
41467;BME280;27205;53.690;19.948;2022-07-26T11:13:14;99459.00;;;21.02;75.13
41467;BME280;27205;53.690;19.948;2022-07-26T11:18:22;99459.69;;;21.22;74.88
41467;BME280;27205;53.690;19.948;2022-07-26T11:23:38;99466.59;;;21.46;74.54
41467;BME280;27205;53.690;19.948;2022-07-26T11:28:57;99478.62;;;21.82;74.01
41467;BME280;27205;53.690;19.948;2022-07-26T11:34:02;99482.89;;;22.13;73.30
41467;BME280;27205;53.690;19.948;2022-07-26T11:39:12;99483.58;;;22.21;72.66
41467;BME280;27205;53.690;19.948;2022-07-26T11:44:18;99476.71;;;22.08;72.18
41467;BME280;27205;53.690;19.948;2022-07-26T11:49:26;99477.95;;;22.14;72.13
41467;BME280;27205;53.690;19.948;2022-07-26T11:54:53;99487.04;;;22.42;71.22
41467;BME280;27205;53.690;19.948;2022-07-26T11:59:57;99485.64;;;22.59;70.43
41467;BME280;27205;53.690;19.948;2022-07-26T12:05:19;99492.30;;;22.67;70.14
41467;BME280;27205;53.690;19.948;2022-07-26T12:10:24;99488.80;;;22.57;70.07
41467;BME280;27205;53.690;19.948;2022-07-26T12:15:45;99488.95;;;22.53;69.62
41467;BME280;27205;53.690;19.948;2022-07-26T12:26:26;99492.20;;;22.24;69.24
41467;BME280;27205;53.690;19.948;2022-07-26T12:31:31;99484.68;;;22.07;68.90
41467;BME280;27205;53.690;19.948;2022-07-26T12:36:36;99491.61;;;21.92;68.78
41467;BME280;27205;53.690;19.948;2022-07-26T12:41:42;99495.03;;;21.96;68.94
41467;BME280;27205;53.690;19.948;2022-07-26T12:46:48;99490.95;;;22.03;68.91
41467;BME280;27205;53.690;19.948;2022-07-26T12:51:51;99490.05;;;22.26;68.78
41467;BME280;27205;53.690;19.948;2022-07-26T12:56:54;99495.58;;;22.35;68.39
41467;BME280;27205;53.690;19.948;2022-07-26T13:01:57;99493.36;;;22.43;68.19
41467;BME280;27205;53.690;19.948;2022-07-26T13:07:03;99494.64;;;22.42;68.02
41467;BME280;27205;53.690;19.948;2022-07-26T13:12:08;99495.00;;;22.64;67.71
41467;BME280;27205;53.690;19.948;2022-07-26T13:17:12;99496.92;;;22.81;67.30
41467;BME280;27205;53.690;19.948;2022-07-26T13:22:15;99491.11;;;22.87;66.93
41467;BME280;27205;53.690;19.948;2022-07-26T13:27:19;99487.06;;;22.87;66.54
41467;BME280;27205;53.690;19.948;2022-07-26T13:32:22;99476.09;;;22.87;66.38
41467;BME280;27205;53.690;19.948;2022-07-26T13:37:25;99473.80;;;22.91;66.31
41467;BME280;27205;53.690;19.948;2022-07-26T13:42:28;99478.11;;;22.91;66.21
41467;BME280;27205;53.690;19.948;2022-07-26T13:47:32;99481.47;;;22.96;65.99
41467;BME280;27205;53.690;19.948;2022-07-26T13:52:35;99478.94;;;22.83;65.51
41467;BME280;27205;53.690;19.948;2022-07-26T13:57:39;99477.64;;;22.79;65.79
41467;BME280;27205;53.690;19.948;2022-07-26T14:02:59;99474.02;;;23.12;65.57
41467;BME280;27205;53.690;19.948;2022-07-26T14:08:03;99475.46;;;23.45;65.19
41467;BME280;27205;53.690;19.948;2022-07-26T14:13:07;99477.52;;;23.80;64.86
41467;BME280;27205;53.690;19.948;2022-07-26T14:18:10;99475.50;;;24.13;64.54
41467;BME280;27205;53.690;19.948;2022-07-26T14:23:14;99478.81;;;24.16;63.73
41467;BME280;27205;53.690;19.948;2022-07-26T14:28:17;99478.61;;;23.97;63.54
41467;BME280;27205;53.690;19.948;2022-07-26T14:33:20;99481.23;;;24.05;63.57
41467;BME280;27205;53.690;19.948;2022-07-26T14:38:24;99482.54;;;24.20;63.50
41467;BME280;27205;53.690;19.948;2022-07-26T14:43:32;99480.75;;;24.29;63.33
41467;BME280;27205;53.690;19.948;2022-07-26T14:48:35;99483.98;;;24.37;63.18
41467;BME280;27205;53.690;19.948;2022-07-26T14:53:56;99479.02;;;24.51;62.68
41467;BME280;27205;53.690;19.948;2022-07-26T14:58:59;99476.53;;;24.55;62.12
41467;BME280;27205;53.690;19.948;2022-07-26T15:04:03;99484.48;;;24.61;61.90
41467;BME280;27205;53.690;19.948;2022-07-26T15:09:07;99487.33;;;24.72;61.52
41467;BME280;27205;53.690;19.948;2022-07-26T15:14:10;99487.79;;;24.79;61.23
41467;BME280;27205;53.690;19.948;2022-07-26T15:19:14;99485.08;;;24.77;61.02
41467;BME280;27205;53.690;19.948;2022-07-26T15:24:17;99490.98;;;24.92;60.82
41467;BME280;27205;53.690;19.948;2022-07-26T15:29:24;99483.13;;;24.94;60.69
41467;BME280;27205;53.690;19.948;2022-07-26T15:34:28;99481.91;;;25.18;60.82
41467;BME280;27205;53.690;19.948;2022-07-26T15:39:31;99478.88;;;25.36;59.97
41467;BME280;27205;53.690;19.948;2022-07-26T15:44:36;99471.83;;;25.42;60.10
41467;BME280;27205;53.690;19.948;2022-07-26T15:49:43;99468.88;;;25.68;59.66
41467;BME280;27205;53.690;19.948;2022-07-26T15:54:46;99466.19;;;25.97;59.54
41467;BME280;27205;53.690;19.948;2022-07-26T15:59:49;99463.30;;;26.32;58.86
41467;BME280;27205;53.690;19.948;2022-07-26T16:04:53;99465.96;;;26.85;58.14
41467;BME280;27205;53.690;19.948;2022-07-26T16:09:56;99469.02;;;26.75;57.67
41467;BME280;27205;53.690;19.948;2022-07-26T16:15:00;99465.64;;;26.53;57.69
41467;BME280;27205;53.690;19.948;2022-07-26T16:20:04;99466.05;;;26.46;57.46
41467;BME280;27205;53.690;19.948;2022-07-26T16:25:08;99469.10;;;26.29;57.30
41467;BME280;27205;53.690;19.948;2022-07-26T16:30:13;99469.63;;;26.19;57.17
41467;BME280;27205;53.690;19.948;2022-07-26T16:35:16;99471.67;;;26.15;57.19
41467;BME280;27205;53.690;19.948;2022-07-26T16:40:20;99474.21;;;25.95;57.06
41467;BME280;27205;53.690;19.948;2022-07-26T16:45:23;99482.39;;;25.73;57.05
41467;BME280;27205;53.690;19.948;2022-07-26T16:50:27;99481.77;;;25.93;56.87
41467;BME280;27205;53.690;19.948;2022-07-26T16:55:30;99485.01;;;27.00;56.08
41467;BME280;27205;53.690;19.948;2022-07-26T17:00:33;99488.46;;;28.09;55.31
41467;BME280;27205;53.690;19.948;2022-07-26T17:05:37;99499.23;;;28.13;55.13
41467;BME280;27205;53.690;19.948;2022-07-26T17:10:40;99502.95;;;27.60;54.90
41467;BME280;27205;53.690;19.948;2022-07-26T17:15:44;99503.70;;;26.83;54.97
41467;BME280;27205;53.690;19.948;2022-07-26T17:20:48;99511.89;;;26.09;55.21
41467;BME280;27205;53.690;19.948;2022-07-26T17:25:51;99512.21;;;25.55;55.39
41467;BME280;27205;53.690;19.948;2022-07-26T17:30:54;99513.44;;;25.06;55.61
41467;BME280;27205;53.690;19.948;2022-07-26T17:35:58;99513.25;;;24.68;55.94
41467;BME280;27205;53.690;19.948;2022-07-26T17:41:06;99505.82;;;24.39;56.46
41467;BME280;27205;53.690;19.948;2022-07-26T17:46:09;99508.36;;;24.61;56.29
41467;BME280;27205;53.690;19.948;2022-07-26T17:51:14;99502.38;;;24.57;56.44
41467;BME280;27205;53.690;19.948;2022-07-26T17:56:17;99498.06;;;24.42;56.58
41467;BME280;27205;53.690;19.948;2022-07-26T18:01:21;99498.70;;;24.44;56.85
41467;BME280;27205;53.690;19.948;2022-07-26T18:06:24;99493.81;;;25.08;56.63
41467;BME280;27205;53.690;19.948;2022-07-26T18:11:28;99491.90;;;24.96;56.65
41467;BME280;27205;53.690;19.948;2022-07-26T18:16:32;99497.69;;;24.52;56.85
41467;BME280;27205;53.690;19.948;2022-07-26T18:21:35;99496.56;;;24.11;57.28
41467;BME280;27205;53.690;19.948;2022-07-26T18:26:40;99498.95;;;23.69;57.51
41467;BME280;27205;53.690;19.948;2022-07-26T18:31:45;99496.66;;;23.31;57.96
41467;BME280;27205;53.690;19.948;2022-07-26T18:36:48;99497.60;;;23.00;58.36
41467;BME280;27205;53.690;19.948;2022-07-26T18:41:52;99499.70;;;22.69;58.80
41467;BME280;27205;53.690;19.948;2022-07-26T18:46:56;99503.34;;;22.35;59.23
41467;BME280;27205;53.690;19.948;2022-07-26T18:52:01;99506.48;;;22.06;59.70
41467;BME280;27205;53.690;19.948;2022-07-26T18:57:10;99497.70;;;21.74;60.05
41467;BME280;27205;53.690;19.948;2022-07-26T19:02:14;99495.27;;;21.48;60.80
41467;BME280;27205;53.690;19.948;2022-07-26T19:07:17;99501.27;;;21.25;61.38
41467;BME280;27205;53.690;19.948;2022-07-26T19:12:21;99502.50;;;21.10;61.81
41467;BME280;27205;53.690;19.948;2022-07-26T19:17:25;99504.42;;;21.00;62.37
41467;BME280;27205;53.690;19.948;2022-07-26T19:22:31;99509.17;;;20.90;62.81
41467;BME280;27205;53.690;19.948;2022-07-26T19:27:36;99513.48;;;20.80;62.96
41467;BME280;27205;53.690;19.948;2022-07-26T19:32:39;99510.60;;;20.69;63.94
41467;BME280;27205;53.690;19.948;2022-07-26T19:37:44;99510.02;;;20.59;64.45
41467;BME280;27205;53.690;19.948;2022-07-26T19:42:48;99510.23;;;20.43;64.82
41467;BME280;27205;53.690;19.948;2022-07-26T19:47:52;99508.02;;;20.28;64.95
41467;BME280;27205;53.690;19.948;2022-07-26T19:52:55;99513.81;;;20.14;65.90
41467;BME280;27205;53.690;19.948;2022-07-26T19:57:58;99518.39;;;20.00;66.54
41467;BME280;27205;53.690;19.948;2022-07-26T20:03:02;99523.83;;;19.86;67.60
41467;BME280;27205;53.690;19.948;2022-07-26T20:08:06;99541.05;;;19.71;69.31
41467;BME280;27205;53.690;19.948;2022-07-26T20:13:09;99564.04;;;19.53;72.06
41467;BME280;27205;53.690;19.948;2022-07-26T20:18:13;99569.70;;;19.23;73.10
41467;BME280;27205;53.690;19.948;2022-07-26T20:23:16;99585.06;;;18.92;74.13
41467;BME280;27205;53.690;19.948;2022-07-26T20:28:20;99580.46;;;18.58;74.85
41467;BME280;27205;53.690;19.948;2022-07-26T20:33:25;99581.22;;;18.31;76.22
41467;BME280;27205;53.690;19.948;2022-07-26T20:38:28;99580.39;;;18.07;77.53
41467;BME280;27205;53.690;19.948;2022-07-26T20:43:32;99572.55;;;17.92;78.60
41467;BME280;27205;53.690;19.948;2022-07-26T20:48:36;99584.41;;;17.81;79.76
41467;BME280;27205;53.690;19.948;2022-07-26T20:53:40;99599.36;;;17.74;81.10
41467;BME280;27205;53.690;19.948;2022-07-26T20:58:43;99601.65;;;17.68;81.22
41467;BME280;27205;53.690;19.948;2022-07-26T21:03:48;99604.42;;;17.66;80.86
41467;BME280;27205;53.690;19.948;2022-07-26T21:08:51;99611.23;;;17.65;81.73
41467;BME280;27205;53.690;19.948;2022-07-26T21:13:55;99616.34;;;17.68;82.04
41467;BME280;27205;53.690;19.948;2022-07-26T21:19:00;99620.38;;;17.70;83.23
41467;BME280;27205;53.690;19.948;2022-07-26T21:24:04;99626.14;;;17.74;82.47
41467;BME280;27205;53.690;19.948;2022-07-26T21:29:08;99634.48;;;17.78;82.06
41467;BME280;27205;53.690;19.948;2022-07-26T21:34:12;99646.66;;;17.82;82.53
41467;BME280;27205;53.690;19.948;2022-07-26T21:39:15;99646.41;;;17.77;82.56
41467;BME280;27205;53.690;19.948;2022-07-26T21:44:19;99651.23;;;17.70;82.56
41467;BME280;27205;53.690;19.948;2022-07-26T21:49:22;99661.33;;;17.59;82.20
41467;BME280;27205;53.690;19.948;2022-07-26T21:54:26;99658.63;;;17.47;82.06
41467;BME280;27205;53.690;19.948;2022-07-26T21:59:29;99664.50;;;17.38;82.78
41467;BME280;27205;53.690;19.948;2022-07-26T22:04:32;99663.52;;;17.27;82.63
41467;BME280;27205;53.690;19.948;2022-07-26T22:09:36;99671.39;;;17.24;82.16
41467;BME280;27205;53.690;19.948;2022-07-26T22:14:39;99678.34;;;17.22;82.20
41467;BME280;27205;53.690;19.948;2022-07-26T22:19:42;99686.81;;;17.10;81.80
41467;BME280;27205;53.690;19.948;2022-07-26T22:24:46;99695.09;;;16.95;80.38
41467;BME280;27205;53.690;19.948;2022-07-26T22:29:49;99692.52;;;16.81;79.08
41467;BME280;27205;53.690;19.948;2022-07-26T22:34:53;99694.59;;;16.70;78.12
41467;BME280;27205;53.690;19.948;2022-07-26T22:39:56;99697.74;;;16.61;77.07
41467;BME280;27205;53.690;19.948;2022-07-26T22:45:00;99691.29;;;16.52;76.38
41467;BME280;27205;53.690;19.948;2022-07-26T22:50:04;99696.64;;;16.38;75.80
41467;BME280;27205;53.690;19.948;2022-07-26T22:55:08;99696.75;;;16.23;75.75
41467;BME280;27205;53.690;19.948;2022-07-26T23:00:16;99695.10;;;16.08;75.58
41467;BME280;27205;53.690;19.948;2022-07-26T23:05:20;99697.84;;;15.94;75.45
41467;BME280;27205;53.690;19.948;2022-07-26T23:10:29;99692.85;;;15.81;75.45
41467;BME280;27205;53.690;19.948;2022-07-26T23:15:32;99694.81;;;15.71;75.46
41467;BME280;27205;53.690;19.948;2022-07-26T23:20:36;99698.60;;;15.68;75.41
41467;BME280;27205;53.690;19.948;2022-07-26T23:25:39;99699.73;;;15.69;75.03
41467;BME280;27205;53.690;19.948;2022-07-26T23:30:42;99697.04;;;15.68;75.03
41467;BME280;27205;53.690;19.948;2022-07-26T23:35:46;99696.10;;;15.66;75.05
41467;BME280;27205;53.690;19.948;2022-07-26T23:40:49;99694.35;;;15.61;75.09
41467;BME280;27205;53.690;19.948;2022-07-26T23:45:52;99698.96;;;15.55;75.14
41467;BME280;27205;53.690;19.948;2022-07-26T23:50:56;99701.90;;;15.52;74.87
41467;BME280;27205;53.690;19.948;2022-07-26T23:55:59;99706.95;;;15.47;74.86
